createdAt,value
2018-07-21T00:00:10.352Z,69.35
2018-07-21T00:01:10.256Z,69.15
2018-07-21T00:02:10.212Z,69.15
2018-07-21T00:03:10.117Z,68.32
2018-07-21T00:04:10.049Z,68.42
2018-07-21T00:05:09.972Z,68.80
2018-07-21T00:06:09.918Z,68.38
2018-07-21T00:07:09.830Z,69.09
2018-07-21T00:08:09.843Z,69.29
2018-07-21T00:09:09.689Z,69.73
2018-07-21T00:10:09.649Z,69.48
2018-07-21T00:11:09.546Z,69.83
2018-07-21T00:12:09.486Z,70.12
2018-07-21T00:13:09.411Z,69.73
2018-07-21T00:14:09.348Z,69.73
2018-07-21T00:15:09.263Z,70.31
2018-07-21T00:16:09.285Z,69.87
2018-07-21T00:17:09.128Z,69.45
2018-07-21T00:18:09.066Z,69.54
2018-07-21T00:19:08.981Z,69.35
2018-07-21T00:20:08.915Z,69.57
2018-07-21T00:21:08.837Z,69.57
2018-07-21T00:22:08.809Z,69.57
2018-07-21T00:23:08.694Z,69.38
2018-07-21T00:24:08.625Z,69.48
2018-07-21T00:25:08.554Z,69.77
2018-07-21T00:26:08.492Z,69.19
2018-07-21T00:27:08.411Z,69.09
2018-07-21T00:28:08.440Z,69.19
2018-07-21T00:29:08.266Z,69.67
2018-07-21T00:30:08.255Z,69.48
2018-07-21T00:31:08.121Z,69.19
2018-07-21T00:32:08.061Z,68.99
2018-07-21T00:33:07.985Z,68.99
2018-07-21T00:34:07.967Z,69.48
2018-07-21T00:35:07.846Z,69.19
2018-07-21T00:36:07.779Z,68.90
2018-07-21T00:37:07.701Z,68.61
2018-07-21T00:38:07.687Z,69.29
2018-07-21T00:39:07.560Z,69.19
2018-07-21T00:40:07.607Z,69.38
2018-07-21T00:41:07.418Z,69.87
2018-07-21T00:42:07.356Z,69.38
2018-07-21T00:43:07.279Z,69.57
2018-07-21T00:44:07.213Z,69.57
2018-07-21T00:45:07.136Z,69.67
2018-07-21T00:46:07.071Z,69.57
2018-07-21T00:47:06.992Z,69.48
2018-07-21T00:48:06.933Z,69.48
2018-07-21T00:49:06.851Z,69.09
2018-07-21T00:50:06.851Z,69.48
2018-07-21T00:51:06.711Z,69.90
2018-07-21T00:52:07.647Z,69.29
2018-07-21T00:53:06.564Z,69.57
2018-07-21T00:54:06.510Z,69.48
2018-07-21T00:55:06.436Z,69.42
2018-07-21T00:56:06.377Z,69.38
2018-07-21T00:57:06.287Z,69.77
2018-07-21T00:58:06.221Z,69.29
2018-07-21T00:59:06.141Z,69.57
2018-07-21T01:00:06.079Z,69.67
2018-07-21T01:01:05.998Z,69.48
2018-07-21T01:02:05.938Z,69.77
2018-07-21T01:03:05.872Z,69.61
2018-07-21T01:04:05.797Z,69.38
2018-07-21T01:05:05.720Z,69.57
2018-07-21T01:06:05.657Z,69.48
2018-07-21T01:07:05.576Z,69.29
2018-07-21T01:08:05.513Z,70.54
2018-07-21T01:09:05.441Z,70.28
2018-07-21T01:10:05.375Z,70.15
2018-07-21T01:11:05.302Z,70.35
2018-07-21T01:12:05.237Z,70.64
2018-07-21T01:13:05.155Z,70.25
2018-07-21T01:14:05.102Z,70.25
2018-07-21T01:15:05.013Z,70.92
2018-07-21T01:16:04.948Z,71.12
2018-07-21T01:17:04.874Z,71.12
2018-07-21T01:18:04.804Z,71.02
2018-07-21T01:19:04.732Z,71.31
2018-07-21T01:20:04.664Z,71.22
2018-07-21T01:21:04.591Z,71.31
2018-07-21T01:22:04.525Z,71.22
2018-07-21T01:23:04.451Z,71.31
2018-07-21T01:24:04.386Z,71.50
2018-07-21T01:25:04.303Z,71.12
2018-07-21T01:26:04.243Z,71.60
2018-07-21T01:27:04.165Z,71.70
2018-07-21T01:28:04.101Z,71.41
2018-07-21T01:29:04.027Z,71.41
2018-07-21T01:30:03.966Z,71.89
2018-07-21T01:31:03.888Z,72.08
2018-07-21T01:32:03.820Z,71.89
2018-07-21T01:33:03.741Z,71.98
2018-07-21T01:34:03.679Z,72.18
2018-07-21T01:35:03.603Z,72.18
2018-07-21T01:36:03.536Z,71.98
2018-07-21T01:37:03.459Z,72.08
2018-07-21T01:38:03.397Z,72.37
2018-07-21T01:39:03.318Z,72.02
2018-07-21T01:40:03.252Z,72.18
2018-07-21T01:41:03.174Z,72.21
2018-07-21T01:42:03.113Z,72.08
2018-07-21T01:43:03.036Z,71.89
2018-07-21T01:44:02.971Z,72.37
2018-07-21T01:45:02.893Z,72.27
2018-07-21T01:46:02.832Z,72.18
2018-07-21T01:47:02.754Z,72.37
2018-07-21T01:48:02.692Z,72.56
2018-07-21T01:49:02.612Z,72.95
2018-07-21T01:50:02.549Z,72.66
2018-07-21T01:51:02.470Z,72.31
2018-07-21T01:52:02.444Z,72.60
2018-07-21T01:53:02.329Z,72.56
2018-07-21T01:54:02.264Z,72.37
2018-07-21T01:55:02.189Z,72.37
2018-07-21T01:56:02.123Z,72.37
2018-07-21T01:57:02.046Z,72.56
2018-07-21T01:58:01.987Z,72.75
2018-07-21T01:59:01.905Z,72.66
2018-07-21T02:00:01.838Z,72.95
2018-07-21T02:01:01.762Z,72.95
2018-07-21T02:02:01.704Z,72.47
2018-07-21T02:03:01.627Z,72.66
2018-07-21T02:04:01.556Z,73.27
2018-07-21T02:05:01.481Z,73.43
2018-07-21T02:06:01.421Z,72.95
2018-07-21T02:07:01.344Z,73.24
2018-07-21T02:08:01.274Z,73.37
2018-07-21T02:09:01.198Z,73.85
2018-07-21T02:10:01.138Z,73.62
2018-07-21T02:11:01.058Z,73.62
2018-07-21T02:12:00.998Z,73.62
2018-07-21T02:13:00.916Z,73.33
2018-07-21T02:14:00.857Z,73.72
2018-07-21T02:15:00.778Z,73.53
2018-07-21T02:16:00.715Z,73.62
2018-07-21T02:17:00.635Z,73.43
2018-07-21T02:18:00.569Z,74.10
2018-07-21T02:19:00.492Z,74.30
2018-07-21T02:20:00.428Z,73.33
2018-07-21T02:21:00.353Z,73.72
2018-07-21T02:22:00.289Z,73.53
2018-07-21T02:23:00.211Z,73.62
2018-07-21T02:24:00.148Z,73.24
2018-07-21T02:25:00.070Z,74.20
2018-07-21T02:26:00.010Z,73.82
2018-07-21T02:26:59.930Z,73.53
2018-07-21T02:27:59.864Z,73.43
2018-07-21T02:28:59.789Z,74.58
2018-07-21T02:29:59.724Z,74.78
2018-07-21T02:30:59.654Z,74.58
2018-07-21T02:31:59.573Z,75.36
2018-07-21T02:32:59.513Z,75.16
2018-07-21T02:33:59.432Z,75.26
2018-07-21T02:34:59.373Z,75.61
2018-07-21T02:35:59.292Z,75.16
2018-07-21T02:36:59.226Z,75.26
2018-07-21T02:37:59.150Z,75.13
2018-07-21T02:38:59.094Z,75.61
2018-07-21T02:39:59.011Z,75.80
2018-07-21T02:40:58.949Z,75.71
2018-07-21T02:41:58.870Z,75.90
2018-07-21T02:42:58.808Z,75.61
2018-07-21T02:43:58.728Z,75.71
2018-07-21T02:44:58.661Z,75.51
2018-07-21T02:45:58.586Z,75.65
2018-07-21T02:46:58.530Z,75.84
2018-07-21T02:47:58.454Z,75.93
2018-07-21T02:48:58.383Z,75.71
2018-07-21T02:49:58.298Z,75.26
2018-07-21T02:50:58.240Z,75.93
2018-07-21T02:51:58.162Z,76.32
2018-07-21T02:52:58.097Z,76.51
2018-07-21T02:53:58.020Z,77.48
2018-07-21T02:54:57.960Z,77.86
2018-07-21T02:55:57.879Z,77.53
2018-07-21T02:56:57.815Z,77.63
2018-07-21T02:57:57.736Z,78.59
2018-07-21T02:58:57.675Z,77.63
2018-07-21T02:59:57.599Z,78.11
2018-07-21T03:00:57.533Z,77.83
2018-07-21T03:01:57.456Z,77.25
2018-07-21T03:02:57.393Z,77.83
2018-07-21T03:03:57.314Z,78.79
2018-07-21T03:04:57.250Z,80.71
2018-07-21T03:05:57.177Z,80.52
2018-07-21T03:06:57.114Z,80.62
2018-07-21T03:07:57.034Z,81.39
2018-07-21T03:08:56.968Z,81.58
2018-07-21T03:09:56.931Z,81.45
2018-07-21T03:10:56.835Z,81.54
2018-07-21T03:11:56.746Z,82.31
2018-07-21T03:12:56.685Z,81.73
2018-07-21T03:13:56.608Z,82.12
2018-07-21T03:14:56.548Z,82.12
2018-07-21T03:15:56.467Z,81.35
2018-07-21T03:16:56.407Z,81.54
2018-07-21T03:17:56.350Z,81.54
2018-07-21T03:18:56.257Z,81.54
2018-07-21T03:19:56.184Z,81.63
2018-07-21T03:20:56.121Z,81.93
2018-07-21T03:21:56.041Z,82.31
2018-07-21T03:22:55.974Z,83.08
2018-07-21T03:23:55.906Z,81.54
2018-07-21T03:24:55.836Z,80.19
2018-07-21T03:25:55.768Z,81.06
2018-07-21T03:26:55.698Z,81.63
2018-07-21T03:27:55.618Z,80.96
2018-07-21T03:28:55.556Z,80.87
2018-07-21T03:29:55.475Z,82.02
2018-07-21T03:30:55.469Z,83.08
2018-07-21T03:31:55.334Z,82.98
2018-07-21T03:32:55.270Z,83.18
2018-07-21T03:33:55.191Z,82.89
2018-07-21T03:34:55.125Z,83.28
2018-07-21T03:35:55.048Z,83.47
2018-07-21T03:36:54.987Z,84.81
2018-07-21T03:37:54.906Z,85.10
2018-07-21T03:38:54.847Z,85.49
2018-07-21T03:39:54.762Z,85.25
2018-07-21T03:40:54.701Z,85.00
2018-07-21T03:41:54.625Z,85.83
2018-07-21T03:42:54.563Z,85.87
2018-07-21T03:43:54.484Z,86.31
2018-07-21T03:44:54.422Z,86.79
2018-07-21T03:45:54.342Z,86.89
2018-07-21T03:46:54.282Z,87.27
2018-07-21T03:47:54.198Z,87.27
2018-07-21T03:48:54.139Z,87.08
2018-07-21T03:49:54.055Z,86.69
2018-07-21T03:50:53.994Z,86.69
2018-07-21T03:51:53.913Z,86.56
2018-07-21T03:52:53.851Z,86.46
2018-07-21T03:53:53.781Z,87.23
2018-07-21T03:54:53.705Z,88.39
2018-07-21T03:55:53.626Z,87.62
2018-07-21T03:56:53.564Z,86.75
2018-07-21T03:57:53.489Z,86.46
2018-07-21T03:58:53.422Z,86.46
2018-07-21T03:59:53.343Z,85.50
2018-07-21T04:00:53.280Z,85.60
2018-07-21T04:01:53.204Z,85.88
2018-07-21T04:02:53.136Z,85.69
2018-07-21T04:03:53.061Z,86.75
2018-07-21T04:04:52.995Z,87.23
2018-07-21T04:05:52.918Z,86.99
2018-07-21T04:06:52.854Z,87.13
2018-07-21T04:07:52.773Z,87.27
2018-07-21T04:08:52.734Z,86.79
2018-07-21T04:09:52.634Z,86.08
2018-07-21T04:10:52.568Z,85.74
2018-07-21T04:11:52.491Z,85.31
2018-07-21T04:12:52.430Z,85.06
2018-07-21T04:13:52.346Z,85.35
2018-07-21T04:14:52.282Z,85.93
2018-07-21T04:15:52.204Z,85.74
2018-07-21T04:16:52.156Z,85.44
2018-07-21T04:17:52.063Z,85.25
2018-07-21T04:18:51.999Z,85.06
2018-07-21T04:19:51.918Z,85.16
2018-07-21T04:20:51.856Z,84.58
2018-07-21T04:21:51.778Z,84.58
2018-07-21T04:22:51.717Z,84.58
2018-07-21T04:23:51.629Z,85.74
2018-07-21T04:24:51.571Z,85.74
2018-07-21T04:25:51.492Z,84.48
2018-07-21T04:26:51.430Z,83.72
2018-07-21T04:27:51.348Z,86.99
2018-07-21T04:28:51.290Z,86.99
2018-07-21T04:29:51.208Z,85.93
2018-07-21T04:30:51.145Z,86.22
2018-07-21T04:31:51.061Z,87.08
2018-07-21T04:32:51.003Z,87.18
2018-07-21T04:33:50.921Z,86.51
2018-07-21T04:34:50.860Z,86.36
2018-07-21T04:35:50.777Z,86.36
2018-07-21T04:36:50.715Z,86.31
2018-07-21T04:37:50.637Z,85.93
2018-07-21T04:38:50.610Z,85.44
2018-07-21T04:39:50.497Z,85.06
2018-07-21T04:40:50.430Z,84.77
2018-07-21T04:41:50.358Z,84.87
2018-07-21T04:42:50.291Z,87.08
2018-07-21T04:43:50.208Z,86.02
2018-07-21T04:44:50.145Z,85.06
2018-07-21T04:45:50.071Z,84.77
2018-07-21T04:46:50.007Z,84.77
2018-07-21T04:47:49.922Z,84.58
2018-07-21T04:48:49.863Z,84.39
2018-07-21T04:49:49.781Z,83.72
2018-07-21T04:50:49.721Z,83.33
2018-07-21T04:51:49.638Z,83.42
2018-07-21T04:52:49.575Z,83.72
2018-07-21T04:53:49.513Z,83.62
2018-07-21T04:54:49.430Z,83.33
2018-07-21T04:55:49.360Z,83.52
2018-07-21T04:56:49.289Z,83.33
2018-07-21T04:57:49.211Z,83.28
2018-07-21T04:58:49.146Z,83.56
2018-07-21T04:59:49.066Z,83.08
2018-07-21T05:00:49.058Z,83.08
2018-07-21T05:01:48.927Z,83.37
2018-07-21T05:02:48.867Z,83.28
2018-07-21T05:03:48.782Z,83.47
2018-07-21T05:04:48.721Z,82.98
2018-07-21T05:05:48.639Z,83.47
2018-07-21T05:06:48.576Z,83.56
2018-07-21T05:07:48.497Z,82.60
2018-07-21T05:08:48.435Z,83.66
2018-07-21T05:09:48.354Z,83.47
2018-07-21T05:10:48.295Z,83.18
2018-07-21T05:11:48.210Z,84.23
2018-07-21T05:12:48.150Z,86.26
2018-07-21T05:13:48.069Z,87.12
2018-07-21T05:14:48.007Z,86.55
2018-07-21T05:15:47.929Z,85.87
2018-07-21T05:16:47.862Z,84.53
2018-07-21T05:17:47.784Z,84.43
2018-07-21T05:18:47.722Z,85.10
2018-07-21T05:19:47.643Z,87.22
2018-07-21T05:20:47.577Z,89.15
2018-07-21T05:21:47.499Z,89.72
2018-07-21T05:22:47.435Z,90.45
2018-07-21T05:23:47.356Z,91.03
2018-07-21T05:24:47.295Z,89.97
2018-07-21T05:25:47.214Z,89.87
2018-07-21T05:26:47.151Z,89.29
2018-07-21T05:27:47.074Z,89.68
2018-07-21T05:28:47.005Z,89.20
2018-07-21T05:29:46.929Z,89.29
2018-07-21T05:30:46.866Z,89.39
2018-07-21T05:31:46.787Z,89.01
2018-07-21T05:32:46.722Z,89.29
2018-07-21T05:33:46.645Z,89.97
2018-07-21T05:34:46.582Z,90.06
2018-07-21T05:35:46.503Z,89.87
2018-07-21T05:36:46.439Z,89.49
2018-07-21T05:37:46.361Z,88.43
2018-07-21T05:38:46.298Z,87.95
2018-07-21T05:39:46.218Z,87.95
2018-07-21T05:40:46.157Z,86.89
2018-07-21T05:41:46.073Z,87.27
2018-07-21T05:42:46.013Z,86.51
2018-07-21T05:43:45.932Z,85.68
2018-07-21T05:44:45.870Z,85.39
2018-07-21T05:45:45.789Z,85.54
2018-07-21T05:46:45.732Z,85.16
2018-07-21T05:47:45.646Z,85.54
2018-07-21T05:48:45.588Z,85.64
2018-07-21T05:49:45.504Z,85.44
2018-07-21T05:50:45.443Z,85.64
2018-07-21T05:51:45.362Z,86.31
2018-07-21T05:52:45.301Z,85.83
2018-07-21T05:53:45.229Z,86.35
2018-07-21T05:54:45.155Z,85.97
2018-07-21T05:55:45.078Z,85.87
2018-07-21T05:56:45.016Z,85.87
2018-07-21T05:57:44.934Z,85.68
2018-07-21T05:58:44.869Z,85.30
2018-07-21T05:59:44.794Z,84.81
2018-07-21T06:00:44.730Z,84.81
2018-07-21T06:01:44.651Z,84.53
2018-07-21T06:02:44.610Z,84.05
2018-07-21T06:03:44.507Z,84.43
2018-07-21T06:04:44.444Z,84.53
2018-07-21T06:05:44.363Z,84.72
2018-07-21T06:06:44.300Z,84.72
2018-07-21T06:07:44.225Z,85.00
2018-07-21T06:08:44.163Z,85.00
2018-07-21T06:09:44.084Z,84.62
2018-07-21T06:10:44.019Z,84.62
2018-07-21T06:11:43.937Z,85.10
2018-07-21T06:12:43.873Z,84.91
2018-07-21T06:13:43.794Z,84.91
2018-07-21T06:14:43.732Z,85.10
2018-07-21T06:15:43.656Z,85.20
2018-07-21T06:16:43.592Z,85.30
2018-07-21T06:17:43.512Z,85.39
2018-07-21T06:18:43.483Z,85.30
2018-07-21T06:19:43.370Z,85.58
2018-07-21T06:20:43.305Z,86.45
2018-07-21T06:21:43.243Z,86.93
2018-07-21T06:22:43.159Z,87.99
2018-07-21T06:23:43.099Z,87.41
2018-07-21T06:24:43.018Z,86.74
2018-07-21T06:25:42.942Z,86.74
2018-07-21T06:26:42.876Z,87.22
2018-07-21T06:27:42.799Z,88.47
2018-07-21T06:28:42.737Z,89.53
2018-07-21T06:29:42.666Z,89.53
2018-07-21T06:30:42.595Z,90.01
2018-07-21T06:31:42.515Z,88.18
2018-07-21T06:32:42.450Z,88.47
2018-07-21T06:33:42.371Z,87.60
2018-07-21T06:34:42.311Z,86.55
2018-07-21T06:35:42.240Z,86.35
2018-07-21T06:36:42.165Z,86.35
2018-07-21T06:37:42.089Z,86.45
2018-07-21T06:38:42.025Z,86.99
2018-07-21T06:39:41.946Z,87.56
2018-07-21T06:40:41.882Z,87.85
2018-07-21T06:41:41.800Z,88.04
2018-07-21T06:42:41.741Z,88.43
2018-07-21T06:43:41.661Z,88.91
2018-07-21T06:44:41.599Z,89.20
2018-07-21T06:45:41.518Z,89.01
2018-07-21T06:46:41.458Z,89.29
2018-07-21T06:47:41.374Z,89.29
2018-07-21T06:48:41.316Z,89.20
2018-07-21T06:49:41.291Z,89.10
2018-07-21T06:50:41.722Z,89.39
2018-07-21T06:51:41.092Z,88.53
2018-07-21T06:52:41.028Z,88.33
2018-07-21T06:53:40.956Z,88.04
2018-07-21T06:54:40.888Z,88.43
2018-07-21T06:55:40.807Z,87.95
2018-07-21T06:56:40.746Z,88.33
2018-07-21T06:57:40.664Z,87.85
2018-07-21T06:58:40.602Z,88.53
2018-07-21T06:59:40.522Z,88.71
2018-07-21T07:00:40.460Z,89.10
2018-07-21T07:01:40.381Z,89.78
2018-07-21T07:02:40.315Z,90.35
2018-07-21T07:03:40.240Z,90.16
2018-07-21T07:04:40.184Z,89.68
2018-07-21T07:05:40.098Z,90.06
2018-07-21T07:06:40.031Z,89.68
2018-07-21T07:07:39.950Z,89.78
2018-07-21T07:08:39.886Z,90.55
2018-07-21T07:09:39.809Z,91.17
2018-07-21T07:10:39.745Z,90.83
2018-07-21T07:11:39.666Z,91.70
2018-07-21T07:12:39.605Z,92.32
2018-07-21T07:13:39.524Z,92.42
2018-07-21T07:14:39.464Z,92.38
2018-07-21T07:15:39.379Z,92.38
2018-07-21T07:16:39.316Z,92.18
2018-07-21T07:17:39.240Z,92.76
2018-07-21T07:18:39.174Z,93.15
2018-07-21T07:19:39.095Z,93.53
2018-07-21T07:20:39.030Z,93.91
2018-07-21T07:21:38.952Z,93.91
2018-07-21T07:22:38.893Z,93.72
2018-07-21T07:23:38.816Z,94.30
2018-07-21T07:24:38.738Z,94.49
2018-07-21T07:25:38.700Z,94.30
2018-07-21T07:26:38.598Z,94.10
2018-07-21T07:27:38.530Z,94.40
2018-07-21T07:28:38.455Z,94.78
2018-07-21T07:29:38.400Z,94.40
2018-07-21T07:30:38.425Z,95.17
2018-07-21T07:31:38.240Z,95.36
2018-07-21T07:32:38.233Z,95.36
2018-07-21T07:33:38.099Z,95.55
2018-07-21T07:34:38.043Z,95.36
2018-07-21T07:35:37.949Z,96.12
2018-07-21T07:36:37.953Z,97.38
2018-07-21T07:37:37.812Z,97.19
2018-07-21T07:38:37.764Z,96.61
2018-07-21T07:39:37.667Z,96.70
2018-07-21T07:40:37.679Z,96.70
2018-07-21T07:41:37.533Z,97.67
2018-07-21T07:42:37.482Z,97.67
2018-07-21T07:43:37.406Z,97.76
2018-07-21T07:44:37.320Z,95.94
2018-07-21T07:45:37.240Z,96.12
2018-07-21T07:46:37.207Z,96.89
2018-07-21T07:47:37.096Z,97.96
2018-07-21T07:48:37.114Z,96.89
2018-07-21T07:49:36.955Z,96.75
2018-07-21T07:50:36.923Z,97.28
2018-07-21T07:51:36.817Z,97.33
2018-07-21T07:52:36.836Z,97.09
2018-07-21T07:53:36.670Z,96.80
2018-07-21T07:54:36.644Z,96.85
2018-07-21T07:55:36.552Z,97.52
2018-07-21T07:56:36.553Z,98.14
2018-07-21T07:57:36.386Z,96.85
2018-07-21T07:58:36.321Z,97.42
2018-07-21T07:59:36.240Z,98.87
2018-07-21T08:00:36.180Z,98.49
2018-07-21T08:01:36.106Z,98.19
2018-07-21T08:02:36.041Z,97.62
2018-07-21T08:03:35.964Z,98.39
2018-07-21T08:04:35.893Z,98.82
2018-07-21T08:05:35.819Z,98.72
2018-07-21T08:06:35.754Z,98.72
2018-07-21T08:07:35.707Z,99.01
2018-07-21T08:08:35.601Z,98.72
2018-07-21T08:09:35.619Z,99.49
2018-07-21T08:10:35.459Z,99.78
2018-07-21T08:11:35.393Z,99.99
2018-07-21T08:12:35.435Z,99.99
2018-07-21T08:13:35.247Z,99.99
2018-07-21T08:14:35.241Z,99.99
2018-07-21T08:15:35.099Z,99.40
2018-07-21T08:16:35.050Z,99.40
2018-07-21T08:17:34.960Z,99.78
2018-07-21T08:18:34.959Z,99.99
2018-07-21T08:19:34.875Z,99.99
2018-07-21T08:20:34.770Z,99.99
2018-07-21T08:21:34.676Z,99.99
2018-07-21T08:22:34.682Z,99.49
2018-07-21T08:23:34.529Z,98.92
2018-07-21T08:24:34.495Z,99.99
2018-07-21T08:25:34.389Z,99.99
2018-07-21T08:26:34.402Z,99.99
2018-07-21T08:27:34.241Z,99.99
2018-07-21T08:28:34.211Z,99.99
2018-07-21T08:29:34.105Z,99.99
2018-07-21T08:30:34.123Z,99.99
2018-07-21T08:31:33.956Z,99.99
2018-07-21T08:32:33.932Z,99.99
2018-07-21T08:33:33.814Z,99.59
2018-07-21T08:34:33.847Z,98.92
2018-07-21T08:35:33.668Z,99.30
2018-07-21T08:36:33.648Z,99.21
2018-07-21T08:37:33.524Z,99.99
2018-07-21T08:38:33.558Z,99.99
2018-07-21T08:39:33.384Z,99.99
2018-07-21T08:40:33.379Z,99.99
2018-07-21T08:41:33.242Z,99.99
2018-07-21T08:42:33.278Z,99.99
2018-07-21T08:43:33.097Z,99.99
2018-07-21T08:44:33.086Z,99.99
2018-07-21T08:45:32.958Z,99.99
2018-07-21T08:46:32.998Z,99.99
2018-07-21T08:47:32.813Z,99.99
2018-07-21T08:48:32.806Z,99.99
2018-07-21T08:49:32.671Z,99.99
2018-07-21T08:50:32.719Z,99.99
2018-07-21T08:51:32.534Z,99.99
2018-07-21T08:52:32.463Z,99.99
2018-07-21T08:53:32.390Z,99.99
2018-07-21T08:54:32.331Z,99.99
2018-07-21T08:55:32.243Z,99.99
2018-07-21T08:56:32.246Z,99.99
2018-07-21T08:57:32.097Z,99.99
2018-07-21T08:58:32.027Z,99.99
2018-07-21T08:59:32.062Z,99.99
2018-07-21T09:00:31.881Z,99.99
2018-07-21T09:01:31.872Z,99.99
2018-07-21T09:02:31.740Z,99.99
2018-07-21T09:03:31.782Z,99.99
2018-07-21T09:04:31.598Z,99.99
2018-07-21T09:05:31.590Z,99.99
2018-07-21T09:06:31.454Z,99.99
2018-07-21T09:07:31.399Z,99.99
2018-07-21T09:08:31.315Z,99.99
2018-07-21T09:09:31.312Z,99.99
2018-07-21T09:10:31.166Z,99.99
2018-07-21T09:11:31.121Z,99.99
2018-07-21T09:12:31.035Z,99.99
2018-07-21T09:13:31.037Z,99.99
2018-07-21T09:14:30.888Z,99.99
2018-07-21T09:15:30.838Z,99.99
2018-07-21T09:16:30.737Z,99.99
2018-07-21T09:17:30.749Z,99.99
2018-07-21T09:18:30.693Z,99.99
2018-07-21T09:19:30.554Z,99.99
2018-07-21T09:20:30.450Z,99.99
2018-07-21T09:21:30.570Z,99.99
2018-07-21T09:22:30.306Z,99.99
2018-07-21T09:23:30.278Z,99.99
2018-07-21T09:24:30.160Z,99.99
2018-07-21T09:25:30.193Z,99.99
2018-07-21T09:26:30.025Z,99.99
2018-07-21T09:27:29.996Z,99.99
2018-07-21T09:28:29.880Z,99.99
2018-07-21T09:29:29.911Z,99.99
2018-07-21T09:30:29.734Z,99.99
2018-07-21T09:31:29.677Z,99.99
2018-07-21T09:32:29.591Z,99.99
2018-07-21T09:33:29.648Z,99.99
2018-07-21T09:34:29.449Z,99.99
2018-07-21T09:35:29.436Z,99.99
2018-07-21T09:36:29.302Z,99.99
2018-07-21T09:37:29.383Z,99.99
2018-07-21T09:38:29.159Z,99.99
2018-07-21T09:39:29.155Z,99.99
2018-07-21T09:40:29.016Z,99.99
2018-07-21T09:41:29.079Z,99.99
2018-07-21T09:42:28.873Z,99.99
2018-07-21T09:43:28.875Z,99.99
2018-07-21T09:44:28.736Z,99.99
2018-07-21T09:45:28.685Z,99.99
2018-07-21T09:46:28.587Z,99.99
2018-07-21T09:47:28.522Z,99.99
2018-07-21T09:48:28.441Z,99.99
2018-07-21T09:49:28.405Z,99.99
2018-07-21T09:50:28.322Z,99.99
2018-07-21T09:51:28.246Z,99.99
2018-07-21T09:52:28.163Z,99.99
2018-07-21T09:53:28.147Z,99.99
2018-07-21T09:54:28.019Z,99.99
2018-07-21T09:55:27.944Z,99.99
2018-07-21T09:56:27.867Z,99.99
2018-07-21T09:57:27.842Z,99.99
2018-07-21T09:58:27.724Z,99.99
2018-07-21T09:59:27.749Z,99.99
2018-07-21T10:00:27.588Z,99.99
2018-07-21T10:01:27.556Z,99.99
2018-07-21T10:02:27.445Z,99.99
2018-07-21T10:03:27.372Z,99.99
2018-07-21T10:04:27.294Z,99.99
2018-07-21T10:05:27.229Z,99.99
2018-07-21T10:06:27.156Z,99.99
2018-07-21T10:07:27.087Z,99.99
2018-07-21T10:08:27.009Z,99.99
2018-07-21T10:09:27.000Z,99.99
2018-07-21T10:10:26.865Z,99.99
2018-07-21T10:11:26.813Z,99.99
2018-07-21T10:12:26.719Z,99.99
2018-07-21T10:13:26.722Z,99.99
2018-07-21T10:14:26.576Z,99.99
2018-07-21T10:15:26.538Z,99.99
2018-07-21T10:16:26.432Z,99.99
2018-07-21T10:17:26.443Z,99.99
2018-07-21T10:18:26.289Z,99.99
2018-07-21T10:19:26.255Z,99.99
2018-07-21T10:20:26.146Z,99.99
2018-07-21T10:21:26.163Z,99.99
2018-07-21T10:22:26.005Z,99.99
2018-07-21T10:23:25.971Z,99.99
2018-07-21T10:24:25.860Z,99.99
2018-07-21T10:25:25.887Z,99.99
2018-07-21T10:26:25.716Z,99.99
2018-07-21T10:27:25.687Z,99.99
2018-07-21T10:28:25.600Z,99.99
2018-07-21T10:29:25.512Z,99.99
2018-07-21T10:30:25.507Z,99.99
2018-07-21T10:31:25.356Z,99.99
2018-07-21T10:32:25.332Z,99.99
2018-07-21T10:33:25.242Z,99.99
2018-07-21T10:34:25.235Z,99.99
2018-07-21T10:35:25.080Z,99.99
2018-07-21T10:36:25.037Z,99.99
2018-07-21T10:37:24.928Z,99.99
2018-07-21T10:38:24.947Z,99.99
2018-07-21T10:39:24.797Z,99.99
2018-07-21T10:40:24.788Z,99.99
2018-07-21T10:41:24.641Z,99.99
2018-07-21T10:42:24.663Z,99.99
2018-07-21T10:43:24.497Z,99.99
2018-07-21T10:44:24.498Z,99.99
2018-07-21T10:45:24.358Z,99.99
2018-07-21T10:46:24.386Z,99.99
2018-07-21T10:47:24.216Z,99.99
2018-07-21T10:48:24.192Z,99.99
2018-07-21T10:49:24.069Z,99.99
2018-07-21T10:50:24.110Z,99.99
2018-07-21T10:51:23.928Z,99.99
2018-07-21T10:52:23.914Z,99.99
2018-07-21T10:53:23.782Z,99.99
2018-07-21T10:54:23.825Z,99.99
2018-07-21T10:55:23.638Z,99.99
2018-07-21T10:56:23.650Z,99.99
2018-07-21T10:57:23.495Z,99.99
2018-07-21T10:58:23.447Z,99.99
2018-07-21T10:59:23.351Z,99.99
2018-07-21T11:00:23.367Z,99.88
2018-07-21T11:01:23.207Z,99.99
2018-07-21T11:02:23.145Z,99.99
2018-07-21T11:03:23.067Z,99.99
2018-07-21T11:04:23.004Z,99.99
2018-07-21T11:05:22.932Z,99.99
2018-07-21T11:06:22.884Z,99.99
2018-07-21T11:07:22.787Z,99.99
2018-07-21T11:08:22.793Z,99.99
2018-07-21T11:09:22.640Z,99.99
2018-07-21T11:10:22.603Z,99.99
2018-07-21T11:11:22.499Z,99.99
2018-07-21T11:12:22.510Z,99.99
2018-07-21T11:13:22.355Z,99.99
2018-07-21T11:14:22.323Z,99.99
2018-07-21T11:15:22.223Z,99.99
2018-07-21T11:16:22.231Z,99.99
2018-07-21T11:17:22.068Z,99.99
2018-07-21T11:18:22.045Z,99.99
2018-07-21T11:19:21.932Z,99.35
2018-07-21T11:20:21.949Z,99.84
2018-07-21T11:21:21.783Z,99.99
2018-07-21T11:22:21.762Z,99.99
2018-07-21T11:23:21.641Z,99.99
2018-07-21T11:24:21.673Z,99.99
2018-07-21T11:25:21.498Z,99.99
2018-07-21T11:26:21.480Z,99.99
2018-07-21T11:27:21.356Z,99.35
2018-07-21T11:28:21.391Z,99.99
2018-07-21T11:29:21.229Z,99.99
2018-07-21T11:30:21.201Z,99.99
2018-07-21T11:31:21.071Z,99.99
2018-07-21T11:32:21.111Z,99.06
2018-07-21T11:33:20.930Z,99.54
2018-07-21T11:34:20.923Z,99.99
2018-07-21T11:35:20.875Z,99.98
2018-07-21T11:36:20.869Z,99.30
2018-07-21T11:37:20.646Z,98.92
2018-07-21T11:38:20.643Z,98.82
2018-07-21T11:39:20.500Z,99.02
2018-07-21T11:40:20.449Z,99.02
2018-07-21T11:41:20.359Z,99.21
2018-07-21T11:42:20.359Z,99.02
2018-07-21T11:43:20.218Z,99.59
2018-07-21T11:44:20.168Z,99.40
2018-07-21T11:45:20.075Z,99.99
2018-07-21T11:46:20.079Z,99.99
2018-07-21T11:47:19.930Z,99.99
2018-07-21T11:48:19.883Z,99.99
2018-07-21T11:49:19.787Z,99.69
2018-07-21T11:50:19.799Z,99.50
2018-07-21T11:51:19.647Z,99.99
2018-07-21T11:52:19.607Z,99.99
2018-07-21T11:53:19.508Z,99.99
2018-07-21T11:54:19.517Z,99.99
2018-07-21T11:55:19.364Z,99.30
2018-07-21T11:56:19.326Z,99.79
2018-07-21T11:57:19.221Z,98.82
2018-07-21T11:58:19.241Z,98.92
2018-07-21T11:59:19.080Z,99.59
2018-07-21T12:00:20.072Z,99.40
2018-07-21T12:01:18.939Z,98.87
2018-07-21T12:02:18.960Z,98.58
2018-07-21T12:03:18.801Z,98.29
2018-07-21T12:04:18.767Z,97.62
2018-07-21T12:05:18.722Z,98.29
2018-07-21T12:06:18.677Z,98.92
2018-07-21T12:07:18.516Z,99.21
2018-07-21T12:08:18.487Z,99.99
2018-07-21T12:09:18.369Z,99.99
2018-07-21T12:10:18.301Z,99.99
2018-07-21T12:11:18.227Z,99.99
2018-07-21T12:12:18.206Z,99.99
2018-07-21T12:13:18.146Z,99.99
2018-07-21T12:14:18.115Z,99.99
2018-07-21T12:15:17.961Z,99.99
2018-07-21T12:16:17.926Z,99.99
2018-07-21T12:17:17.801Z,99.99
2018-07-21T12:18:17.851Z,99.99
2018-07-21T12:19:17.659Z,99.99
2018-07-21T12:20:17.672Z,99.99
2018-07-21T12:21:17.520Z,99.99
2018-07-21T12:22:17.559Z,99.99
2018-07-21T12:23:17.380Z,99.99
2018-07-21T12:24:17.366Z,99.99
2018-07-21T12:25:17.230Z,99.99
2018-07-21T12:26:17.278Z,99.99
2018-07-21T12:27:17.090Z,99.99
2018-07-21T12:28:17.118Z,99.99
2018-07-21T12:29:16.948Z,99.99
2018-07-21T12:30:16.997Z,99.99
2018-07-21T12:31:16.824Z,99.30
2018-07-21T12:32:16.809Z,99.69
2018-07-21T12:33:16.666Z,99.99
2018-07-21T12:34:16.639Z,99.99
2018-07-21T12:35:16.522Z,99.99
2018-07-21T12:36:16.524Z,99.99
2018-07-21T12:37:16.388Z,99.99
2018-07-21T12:38:16.333Z,99.99
2018-07-21T12:39:16.239Z,99.99
2018-07-21T12:40:16.245Z,99.99
2018-07-21T12:41:16.098Z,99.99
2018-07-21T12:42:16.036Z,99.99
2018-07-21T12:43:15.954Z,99.99
2018-07-21T12:44:15.893Z,99.99
2018-07-21T12:45:15.814Z,99.99
2018-07-21T12:46:15.776Z,99.99
2018-07-21T12:47:15.736Z,99.99
2018-07-21T12:48:15.683Z,99.99
2018-07-21T12:49:15.540Z,99.99
2018-07-21T12:50:21.437Z,99.99
2018-07-21T12:51:15.396Z,99.99